Madison Mills, Virginia
Current Conditions -  °F | °C
As of 7:55 PM on Monday 22 Dec 2014 (Local Time) from KOMH Reporting Station
Overcast Overcast  
Wind Chill: 28°   Ceiling: 400
Heat Index: 34°   Visibility: 7mi
Dew Point: 34°   Wind: 7mph
Humidity: 100%   Direction: 340°NNW
Pressure: 30.14"   Gusts: NA
Location:  38.28°N, 78.14°W
Report Text: KOMH 230055Z AUTO 34006KT 7SM BKN004 OVC009 01/01 A3014 RMK AO2
Loading
Personal Weather Stations






























Interactive Weather Map New forecast layout! Learn more

10-Day Weather Forecast

Advertisements
Track Severe Weather on mobile